createdAt,value
2018-07-06T00:01:18.932Z,17.54
2018-07-06T00:04:26.282Z,17.57
2018-07-06T00:07:32.270Z,17.56
2018-07-06T00:10:38.130Z,17.61
2018-07-06T00:13:45.877Z,17.62
2018-07-06T00:16:53.629Z,17.63
2018-07-06T00:20:00.643Z,17.52
2018-07-06T00:23:08.169Z,17.57
2018-07-06T00:26:16.029Z,17.55
2018-07-06T00:29:23.309Z,17.53
2018-07-06T00:32:31.126Z,17.31
2018-07-06T00:35:37.786Z,17.38
2018-07-06T00:38:45.554Z,17.55
2018-07-06T00:41:53.324Z,17.56
2018-07-06T00:45:01.387Z,17.48
2018-07-06T00:48:08.906Z,17.62
2018-07-06T00:51:15.751Z,17.66
2018-07-06T00:54:21.846Z,17.75
2018-07-06T00:57:29.428Z,17.83
2018-07-06T01:00:36.527Z,17.85
2018-07-06T01:03:43.105Z,17.87
2018-07-06T01:06:49.038Z,17.91
2018-07-06T01:09:54.901Z,17.93
2018-07-06T01:13:06.397Z,17.98
2018-07-06T01:16:12.178Z,17.90
2018-07-06T01:19:18.232Z,17.93
2018-07-06T01:22:24.394Z,17.97
2018-07-06T01:25:32.038Z,17.94
2018-07-06T01:28:38.354Z,17.92
2018-07-06T01:31:44.006Z,17.88
2018-07-06T01:34:51.758Z,17.86
2018-07-06T01:37:58.870Z,17.79
2018-07-06T01:41:06.703Z,17.93
2018-07-06T01:44:14.058Z,17.90
2018-07-06T01:47:21.680Z,17.97
2018-07-06T01:50:27.638Z,17.96
2018-07-06T01:53:35.954Z,17.80
2018-07-06T01:56:41.135Z,17.63
2018-07-06T01:59:48.000Z,17.62
2018-07-06T02:02:55.346Z,17.65
2018-07-06T02:06:02.869Z,17.62
2018-07-06T02:09:08.832Z,17.53
2018-07-06T02:12:16.874Z,17.43
2018-07-06T02:15:23.120Z,17.40
2018-07-06T02:18:30.808Z,17.32
2018-07-06T02:21:36.989Z,17.22
2018-07-06T02:24:45.200Z,17.20
2018-07-06T02:27:51.454Z,17.21
2018-07-06T02:30:59.129Z,17.05
2018-07-06T02:34:05.199Z,17.03
2018-07-06T02:37:11.390Z,16.97
2018-07-06T02:40:17.876Z,16.89
2018-07-06T02:43:24.210Z,16.89
2018-07-06T02:46:32.080Z,16.96
2018-07-06T02:49:40.029Z,16.89
2018-07-06T02:52:47.145Z,16.85
2018-07-06T02:55:54.218Z,16.93
2018-07-06T02:59:00.419Z,17.03
2018-07-06T03:02:06.638Z,17.20
2018-07-06T03:05:14.450Z,17.22
2018-07-06T03:08:20.566Z,17.17
2018-07-06T03:11:26.957Z,17.09
2018-07-06T03:14:33.538Z,17.15
2018-07-06T03:17:39.510Z,17.23
2018-07-06T03:20:47.109Z,17.02
2018-07-06T03:23:53.241Z,17.18
2018-07-06T03:27:00.725Z,17.16
2018-07-06T03:30:08.109Z,17.06
2018-07-06T03:33:15.794Z,17.27
2018-07-06T03:36:23.311Z,17.08
2018-07-06T03:39:30.769Z,17.06
2018-07-06T03:42:38.174Z,17.21
2018-07-06T03:45:44.166Z,17.19
2018-07-06T03:48:51.677Z,17.16
2018-07-06T03:51:59.580Z,17.25
2018-07-06T03:55:05.689Z,17.44
2018-07-06T03:58:13.278Z,17.19
2018-07-06T04:01:19.241Z,17.16
2018-07-06T04:04:25.165Z,17.39
2018-07-06T04:07:32.770Z,17.49
2018-07-06T04:10:40.891Z,17.58
2018-07-06T04:13:46.849Z,17.85
2018-07-06T04:16:54.056Z,17.91
2018-07-06T04:19:59.881Z,17.89
2018-07-06T04:23:07.475Z,17.96
2018-07-06T04:26:14.319Z,18.07
2018-07-06T04:29:20.931Z,18.03
2018-07-06T04:32:28.642Z,18.08
2018-07-06T04:35:34.197Z,18.28
2018-07-06T04:38:41.895Z,18.37
2018-07-06T04:41:48.450Z,18.38
2018-07-06T04:44:55.745Z,18.52
2018-07-06T04:48:03.553Z,18.50
2018-07-06T04:51:09.431Z,18.74
2018-07-06T04:54:15.454Z,18.81
2018-07-06T04:57:21.738Z,18.77
2018-07-06T05:00:27.182Z,18.74
2018-07-06T05:03:33.164Z,18.57
2018-07-06T05:06:39.007Z,18.44
2018-07-06T05:09:44.781Z,18.73
2018-07-06T05:12:50.843Z,18.79
2018-07-06T05:15:58.363Z,18.75
2018-07-06T05:19:04.585Z,18.58
2018-07-06T05:22:12.172Z,18.84
2018-07-06T05:25:20.011Z,18.79
2018-07-06T05:28:27.564Z,18.91
2018-07-06T05:31:34.485Z,18.86
2018-07-06T05:34:42.575Z,18.98
2018-07-06T05:37:49.111Z,18.71
2018-07-06T05:40:55.094Z,18.67
2018-07-06T05:44:00.673Z,18.58
2018-07-06T05:47:06.734Z,18.74
2018-07-06T05:50:13.645Z,18.39
2018-07-06T05:53:21.516Z,18.57
2018-07-06T05:56:27.791Z,18.39
2018-07-06T05:59:35.272Z,18.61
2018-07-06T06:02:42.774Z,18.64
2018-07-06T06:05:49.990Z,18.96
2018-07-06T06:08:19.915Z,18.96
2018-07-06T06:10:52.833Z,19.13
2018-07-06T06:13:26.111Z,19.47
2018-07-06T06:15:59.137Z,19.38
2018-07-06T06:18:32.152Z,19.42
2018-07-06T06:21:05.110Z,19.28
2018-07-06T06:23:36.504Z,19.28
2018-07-06T06:26:07.108Z,19.47
2018-07-06T06:28:38.692Z,19.33
2018-07-06T06:31:10.232Z,19.79
2018-07-06T06:33:43.305Z,19.61
2018-07-06T06:36:14.724Z,19.96
2018-07-06T06:38:45.687Z,20.07
2018-07-06T06:41:16.059Z,20.17
2018-07-06T06:43:46.559Z,20.17
2018-07-06T06:46:18.199Z,20.77
2018-07-06T06:48:49.893Z,21.12
2018-07-06T06:51:19.335Z,21.03
2018-07-06T06:53:52.361Z,22.33
2018-07-06T06:56:25.235Z,22.85
2018-07-06T06:58:56.711Z,23.32
2018-07-06T07:01:28.606Z,23.33
2018-07-06T07:03:58.539Z,24.02
2018-07-06T07:06:31.568Z,24.66
2018-07-06T07:09:05.133Z,25.03
2018-07-06T07:11:37.313Z,24.94
2018-07-06T07:14:08.256Z,24.15
2018-07-06T07:16:39.670Z,24.02
2018-07-06T07:19:12.802Z,24.25
2018-07-06T07:21:42.820Z,24.46
2018-07-06T07:24:17.797Z,24.32
2018-07-06T07:26:49.216Z,24.03
2018-07-06T07:29:21.381Z,23.42
2018-07-06T07:31:52.136Z,23.62
2018-07-06T07:34:23.732Z,23.34
2018-07-06T07:36:58.444Z,23.32
2018-07-06T07:39:30.027Z,23.50
2018-07-06T07:41:59.660Z,22.91
2018-07-06T07:44:31.355Z,22.97
2018-07-06T07:47:02.846Z,22.40
2018-07-06T07:49:35.027Z,22.17
2018-07-06T07:52:42.370Z,23.10
2018-07-06T07:55:12.342Z,25.06
2018-07-06T07:57:42.181Z,24.37
2018-07-06T08:00:14.420Z,23.97
2018-07-06T08:02:46.102Z,24.13
2018-07-06T08:05:17.682Z,23.57
2018-07-06T08:07:50.903Z,23.78
2018-07-06T08:10:20.992Z,23.68
2018-07-06T08:12:51.381Z,24.47
2018-07-06T08:15:21.597Z,24.04
2018-07-06T08:17:53.718Z,24.45
2018-07-06T08:20:27.901Z,24.54
2018-07-06T08:22:59.394Z,24.55
2018-07-06T08:25:34.938Z,25.57
2018-07-06T08:28:06.956Z,26.18
2018-07-06T08:30:39.237Z,26.22
2018-07-06T08:33:14.557Z,25.96
2018-07-06T08:36:27.427Z,27.13
2018-07-06T08:39:00.513Z,28.34
2018-07-06T08:41:36.879Z,27.46
2018-07-06T08:44:09.559Z,27.65
2018-07-06T08:46:41.841Z,26.76
2018-07-06T08:49:14.585Z,27.53
2018-07-06T08:51:49.749Z,27.29
2018-07-06T08:54:23.064Z,28.25
2018-07-06T08:56:58.516Z,28.24
2018-07-06T08:59:33.562Z,27.32
2018-07-06T09:02:06.936Z,28.22
2018-07-06T09:04:40.313Z,29.14
2018-07-06T09:07:15.161Z,28.26
2018-07-06T09:09:48.929Z,28.77
2018-07-06T09:12:23.609Z,28.16
2018-07-06T09:14:57.057Z,28.44
2018-07-06T09:17:30.807Z,28.36
2018-07-06T09:20:01.783Z,29.11
2018-07-06T09:22:36.590Z,27.93
2018-07-06T09:25:09.130Z,27.27
2018-07-06T09:27:41.977Z,28.03
2018-07-06T09:30:15.981Z,28.31
2018-07-06T09:32:48.142Z,29.13
2018-07-06T09:35:21.249Z,28.70
2018-07-06T09:37:56.159Z,28.19
2018-07-06T09:40:31.719Z,29.31
2018-07-06T09:43:05.771Z,28.93
2018-07-06T09:45:40.001Z,29.39
2018-07-06T09:48:14.638Z,29.25
2018-07-06T09:50:46.314Z,29.68
2018-07-06T09:53:19.575Z,29.61
2018-07-06T09:55:53.600Z,29.69
2018-07-06T09:58:26.256Z,29.30
2018-07-06T10:01:01.516Z,30.10
2018-07-06T10:03:33.581Z,29.69
2018-07-06T10:06:05.541Z,30.73
2018-07-06T10:08:41.186Z,30.67
2018-07-06T10:11:13.304Z,29.80
2018-07-06T10:13:49.688Z,30.26
2018-07-06T10:16:23.781Z,30.09
2018-07-06T10:18:56.767Z,30.17
2018-07-06T10:21:31.880Z,30.22
2018-07-06T10:24:03.249Z,30.35
2018-07-06T10:26:38.181Z,29.95
2018-07-06T10:29:46.269Z,30.32
2018-07-06T10:32:26.393Z,30.96
2018-07-06T10:34:57.622Z,30.01
2018-07-06T10:37:30.908Z,29.81
2018-07-06T10:40:02.992Z,29.87
2018-07-06T10:42:34.662Z,29.19
2018-07-06T10:45:07.515Z,27.82
2018-07-06T10:47:38.952Z,29.53
2018-07-06T10:50:09.585Z,29.82
2018-07-06T10:52:40.269Z,29.57
2018-07-06T10:55:11.824Z,28.44
2018-07-06T10:57:46.630Z,29.88
2018-07-06T11:00:19.464Z,29.66
2018-07-06T11:02:49.373Z,29.45
2018-07-06T11:05:22.378Z,29.65
2018-07-06T11:07:51.832Z,29.54
2018-07-06T11:10:23.969Z,29.16
2018-07-06T11:12:55.445Z,29.06
2018-07-06T11:15:26.971Z,28.71
2018-07-06T11:17:58.281Z,29.27
2018-07-06T11:20:31.290Z,29.68
2018-07-06T11:23:04.634Z,30.28
2018-07-06T11:25:37.989Z,29.66
2018-07-06T11:28:08.350Z,31.10
2018-07-06T11:30:42.758Z,30.02
2018-07-06T11:33:12.632Z,28.49
2018-07-06T11:35:44.049Z,27.68
2018-07-06T11:38:15.769Z,28.44
2018-07-06T11:40:48.670Z,28.83
2018-07-06T11:43:21.584Z,28.98
2018-07-06T11:45:52.993Z,28.61
2018-07-06T11:48:25.767Z,28.94
2018-07-06T11:50:59.568Z,28.33
2018-07-06T11:53:30.105Z,27.77
2018-07-06T11:56:00.174Z,29.10
2018-07-06T11:58:32.901Z,29.67
2018-07-06T12:01:04.264Z,29.36
2018-07-06T12:03:35.883Z,29.56
2018-07-06T12:06:10.246Z,30.41
2018-07-06T12:08:41.672Z,30.53
2018-07-06T12:11:13.482Z,30.82
2018-07-06T12:13:44.871Z,30.94
2018-07-06T12:16:14.766Z,30.53
2018-07-06T12:18:46.200Z,30.42
2018-07-06T12:21:17.603Z,29.11
2018-07-06T12:23:50.470Z,29.33
2018-07-06T12:26:23.267Z,28.65
2018-07-06T12:28:57.564Z,28.40
2018-07-06T12:31:28.918Z,28.65
2018-07-06T12:34:01.706Z,28.49
2018-07-06T12:36:37.346Z,28.05
2018-07-06T12:39:10.839Z,28.31
2018-07-06T12:41:42.327Z,28.94
2018-07-06T12:44:12.277Z,29.16
2018-07-06T12:46:45.267Z,29.75
2018-07-06T12:49:18.139Z,29.37
2018-07-06T12:51:50.967Z,28.53
2018-07-06T12:54:22.525Z,29.43
2018-07-06T12:56:53.879Z,28.63
2018-07-06T12:59:23.860Z,29.14
2018-07-06T13:01:56.789Z,29.29
2018-07-06T13:04:29.843Z,29.77
2018-07-06T13:07:02.776Z,29.04
2018-07-06T13:09:35.967Z,29.24
2018-07-06T13:12:07.455Z,29.56
2018-07-06T13:14:40.324Z,29.19
2018-07-06T13:17:11.769Z,29.08
2018-07-06T13:19:43.281Z,29.16
2018-07-06T13:22:16.428Z,29.05
2018-07-06T13:24:49.427Z,28.69
2018-07-06T13:27:22.659Z,29.50
2018-07-06T13:29:55.215Z,29.55
2018-07-06T13:32:28.480Z,29.48
2018-07-06T13:35:01.459Z,30.35
2018-07-06T13:37:35.632Z,29.92
2018-07-06T13:40:05.608Z,29.53
2018-07-06T13:42:38.626Z,29.57
2018-07-06T13:45:12.962Z,30.49
2018-07-06T13:47:45.797Z,29.02
2018-07-06T13:50:18.719Z,29.08
2018-07-06T13:52:51.706Z,29.78
2018-07-06T13:55:24.764Z,30.07
2018-07-06T13:57:54.665Z,30.41
2018-07-06T14:00:26.107Z,30.28
2018-07-06T14:02:59.458Z,29.99
2018-07-06T14:05:32.242Z,30.25
2018-07-06T14:08:06.610Z,29.71
2018-07-06T14:10:41.809Z,28.67
2018-07-06T14:13:13.492Z,28.69
2018-07-06T14:15:45.785Z,29.11
2018-07-06T14:18:17.854Z,29.56
2018-07-06T14:20:47.691Z,29.63
2018-07-06T14:23:19.123Z,29.39
2018-07-06T14:25:53.573Z,29.43
2018-07-06T14:28:25.726Z,28.71
2018-07-06T14:30:57.059Z,28.80
2018-07-06T14:33:30.294Z,28.04
2018-07-06T14:36:01.740Z,27.44
2018-07-06T14:38:34.787Z,27.87
2018-07-06T14:41:06.322Z,27.37
2018-07-06T14:43:39.056Z,28.08
2018-07-06T14:46:10.548Z,28.76
2018-07-06T14:48:42.434Z,28.29
2018-07-06T14:51:15.604Z,27.79
2018-07-06T14:53:50.196Z,27.44
2018-07-06T14:56:23.150Z,27.59
2018-07-06T14:59:00.025Z,27.49
2018-07-06T15:01:32.801Z,27.60
2018-07-06T15:04:07.542Z,27.65
2018-07-06T15:06:38.733Z,27.54
2018-07-06T15:09:13.269Z,27.43
2018-07-06T15:11:44.682Z,27.16
2018-07-06T15:14:17.678Z,26.95
2018-07-06T15:16:49.241Z,26.79
2018-07-06T15:19:22.058Z,27.08
2018-07-06T15:21:53.415Z,27.16
2018-07-06T15:24:23.970Z,27.61
2018-07-06T15:26:58.393Z,27.54
2018-07-06T15:29:31.318Z,27.22
2018-07-06T15:32:04.241Z,27.17
2018-07-06T15:34:37.087Z,27.20
2018-07-06T15:37:08.707Z,27.27
2018-07-06T15:39:43.075Z,27.22
2018-07-06T15:42:12.520Z,26.89
2018-07-06T15:44:42.541Z,27.36
2018-07-06T15:47:12.613Z,27.49
2018-07-06T15:49:43.692Z,27.74
2018-07-06T15:52:18.124Z,28.07
2018-07-06T15:54:51.538Z,28.03
2018-07-06T15:57:23.160Z,28.48
2018-07-06T15:59:55.829Z,27.80
2018-07-06T16:02:25.794Z,27.73
2018-07-06T16:04:58.661Z,27.79
2018-07-06T16:07:33.129Z,27.50
2018-07-06T16:10:03.155Z,27.45
2018-07-06T16:12:34.505Z,27.81
2018-07-06T16:15:06.579Z,27.61
2018-07-06T16:17:38.294Z,27.49
2018-07-06T16:20:10.512Z,27.30
2018-07-06T16:22:43.251Z,26.85
2018-07-06T16:25:17.624Z,26.22
2018-07-06T16:27:49.019Z,26.47
2018-07-06T16:30:21.839Z,26.30
2018-07-06T16:32:55.442Z,26.07
2018-07-06T16:35:30.091Z,25.99
2018-07-06T16:38:03.032Z,25.94
2018-07-06T16:40:33.421Z,25.89
2018-07-06T16:43:06.395Z,26.16
2018-07-06T16:45:37.891Z,26.07
2018-07-06T16:48:09.469Z,26.11
2018-07-06T16:50:39.358Z,25.95
2018-07-06T16:53:10.834Z,26.07
2018-07-06T16:55:43.663Z,26.16
2018-07-06T16:58:16.728Z,26.11
2018-07-06T17:00:48.172Z,25.90
2018-07-06T17:03:21.652Z,25.78
2018-07-06T17:05:53.063Z,25.78
2018-07-06T17:08:23.928Z,25.55
2018-07-06T17:10:55.642Z,25.68
2018-07-06T17:13:27.154Z,25.84
2018-07-06T17:16:00.076Z,25.92
2018-07-06T17:18:33.151Z,25.62
2018-07-06T17:21:04.568Z,25.42
2018-07-06T17:23:39.215Z,25.43
2018-07-06T17:26:10.549Z,25.37
2018-07-06T17:28:43.557Z,25.33
2018-07-06T17:31:15.922Z,25.37
2018-07-06T17:33:48.455Z,25.25
2018-07-06T17:36:23.067Z,25.11
2018-07-06T17:38:53.211Z,25.06
2018-07-06T17:41:24.749Z,25.04
2018-07-06T17:43:56.138Z,25.05
2018-07-06T17:46:30.478Z,25.01
2018-07-06T17:49:02.013Z,24.92
2018-07-06T17:51:32.358Z,24.85
2018-07-06T17:54:03.824Z,24.78
2018-07-06T17:56:36.800Z,24.60
2018-07-06T17:59:09.693Z,24.64
2018-07-06T18:01:41.130Z,24.59
2018-07-06T18:04:12.660Z,24.38
2018-07-06T18:06:44.039Z,24.33
2018-07-06T18:09:14.134Z,24.33
2018-07-06T18:11:48.149Z,24.21
2018-07-06T18:14:21.166Z,24.28
2018-07-06T18:16:52.985Z,23.97
2018-07-06T18:19:24.576Z,23.92
2018-07-06T18:21:57.367Z,23.98
2018-07-06T18:24:30.657Z,23.97
2018-07-06T18:27:02.571Z,23.74
2018-07-06T18:29:35.079Z,23.76
2018-07-06T18:32:08.000Z,23.49
2018-07-06T18:34:38.373Z,23.57
2018-07-06T18:37:11.374Z,23.56
2018-07-06T18:39:43.211Z,23.48
2018-07-06T18:42:16.311Z,23.45
2018-07-06T18:44:46.429Z,23.27
2018-07-06T18:47:19.735Z,23.18
2018-07-06T18:49:51.353Z,23.17
2018-07-06T18:52:22.765Z,23.12
2018-07-06T18:54:55.691Z,23.00
2018-07-06T18:57:28.966Z,22.76
2018-07-06T19:00:03.387Z,22.78
2018-07-06T19:02:38.009Z,22.78
2018-07-06T19:05:10.886Z,22.77
2018-07-06T19:07:42.246Z,22.61
2018-07-06T19:10:13.708Z,22.57
2018-07-06T19:12:47.115Z,22.47
2018-07-06T19:15:20.083Z,22.47
2018-07-06T19:17:53.631Z,22.50
2018-07-06T19:20:26.561Z,22.38
2018-07-06T19:22:59.472Z,22.41
2018-07-06T19:25:29.476Z,22.38
2018-07-06T19:28:02.565Z,22.21
2018-07-06T19:30:34.007Z,22.25
2018-07-06T19:33:08.336Z,22.23
2018-07-06T19:35:41.296Z,22.21
2018-07-06T19:38:14.285Z,22.14
2018-07-06T19:40:47.166Z,21.96
2018-07-06T19:43:18.622Z,22.04
2018-07-06T19:45:51.424Z,21.95
2018-07-06T19:48:23.631Z,21.83
2018-07-06T19:50:56.614Z,21.86
2018-07-06T19:53:29.639Z,21.92
2018-07-06T19:55:59.656Z,21.83
2018-07-06T19:58:34.646Z,21.77
2018-07-06T20:01:07.159Z,21.62
2018-07-06T20:03:38.708Z,21.53
2018-07-06T20:06:13.149Z,21.49
2018-07-06T20:08:46.234Z,21.40
2018-07-06T20:11:16.386Z,21.25
2018-07-06T20:13:46.405Z,21.13
2018-07-06T20:16:19.308Z,21.09
2018-07-06T20:18:49.255Z,21.04
2018-07-06T20:21:24.095Z,21.14
2018-07-06T20:23:54.529Z,21.04
2018-07-06T20:26:27.498Z,21.13
2018-07-06T20:28:59.542Z,21.06
2018-07-06T20:31:30.962Z,21.03
2018-07-06T20:34:00.888Z,20.89
2018-07-06T20:36:32.446Z,20.78
2018-07-06T20:39:03.962Z,20.74
2018-07-06T20:41:36.978Z,20.81
2018-07-06T20:44:07.893Z,20.72
2018-07-06T20:46:42.497Z,20.64
2018-07-06T20:49:13.899Z,20.64
2018-07-06T20:51:46.898Z,20.49
2018-07-06T20:54:19.839Z,20.48
2018-07-06T20:56:51.377Z,20.44
2018-07-06T20:59:22.890Z,20.40
2018-07-06T21:01:55.901Z,20.42
2018-07-06T21:04:30.436Z,20.40
2018-07-06T21:07:01.887Z,20.27
2018-07-06T21:09:34.846Z,20.25
2018-07-06T21:12:08.314Z,20.24
2018-07-06T21:14:41.773Z,20.22
2018-07-06T21:17:13.237Z,20.22
2018-07-06T21:19:45.122Z,20.16
2018-07-06T21:22:16.657Z,20.28
2018-07-06T21:24:49.488Z,20.18
2018-07-06T21:27:22.703Z,20.15
2018-07-06T21:29:55.945Z,20.18
2018-07-06T21:32:29.944Z,20.07
2018-07-06T21:35:00.049Z,20.12
2018-07-06T21:37:30.161Z,20.11
2018-07-06T21:40:01.612Z,20.10
2018-07-06T21:42:36.267Z,19.98
2018-07-06T21:45:10.871Z,19.80
2018-07-06T21:47:40.794Z,19.91
2018-07-06T21:50:13.615Z,19.82
2018-07-06T21:52:45.337Z,19.75
2018-07-06T21:55:17.054Z,19.67
2018-07-06T21:57:50.061Z,19.61
2018-07-06T22:00:41.467Z,19.45
2018-07-06T22:03:15.006Z,19.61
2018-07-06T22:05:47.972Z,19.33
2018-07-06T22:08:22.269Z,19.36
2018-07-06T22:10:54.897Z,19.27
2018-07-06T22:13:27.889Z,19.17
2018-07-06T22:15:58.358Z,19.18
2018-07-06T22:18:31.444Z,19.12
2018-07-06T22:21:04.500Z,19.00
2018-07-06T22:23:37.117Z,18.97
2018-07-06T22:26:06.104Z,18.91
2018-07-06T22:28:37.887Z,18.88
2018-07-06T22:31:10.391Z,18.91
2018-07-06T22:33:42.127Z,18.84
2018-07-06T22:36:16.785Z,18.79
2018-07-06T22:38:49.837Z,18.76
2018-07-06T22:41:21.312Z,18.67
2018-07-06T22:43:54.590Z,18.61
2018-07-06T22:46:27.805Z,18.68
2018-07-06T22:48:59.358Z,18.56
2018-07-06T22:51:32.360Z,18.56
2018-07-06T22:54:04.117Z,18.48
2018-07-06T22:56:35.814Z,18.50
2018-07-06T22:59:10.439Z,18.31
2018-07-06T23:01:41.984Z,18.15
2018-07-06T23:04:13.631Z,18.15
2018-07-06T23:06:47.082Z,18.23
2018-07-06T23:09:21.556Z,18.25
2018-07-06T23:11:54.520Z,18.40
2018-07-06T23:14:27.703Z,18.36
2018-07-06T23:17:00.642Z,18.36
2018-07-06T23:19:33.438Z,18.46
2018-07-06T23:22:08.205Z,18.35
2018-07-06T23:24:41.191Z,18.33
2018-07-06T23:27:13.587Z,18.28
2018-07-06T23:29:47.778Z,18.25
2018-07-06T23:32:20.965Z,18.25
2018-07-06T23:34:53.036Z,18.27
2018-07-06T23:37:26.105Z,18.27
2018-07-06T23:39:58.934Z,18.23
2018-07-06T23:42:28.905Z,18.26
2018-07-06T23:45:01.966Z,18.22
2018-07-06T23:47:31.934Z,18.27
2018-07-06T23:50:03.575Z,18.25
2018-07-06T23:52:34.980Z,18.24
2018-07-06T23:55:06.896Z,18.19
2018-07-06T23:57:40.039Z,18.22
